Time;durP1;ratioP1;P1;durP2;ratioP2;P2;SDS_P1;SDS_P2;PMS_P1;PMS_P2;Temp;Humidity;BMP_temperature;BMP_pressure;BME280_temperature;BME280_humidity;BME280_pressure;Samples;Min_cycle;Max_cycle;Signal;HPM_P1;HPM_P2
2023/02/22 00:00:55;;;;;;;;;;;;;;;25.52;24.36;100472.31;5016277;28;1673;-13
2023/02/22 00:03:24;;;;;;;;;;;;;;;25.49;24.40;100477.22;5016283;28;1279;-13
2023/02/22 00:05:53;;;;;;;;;;;;;;;25.57;24.49;100469.06;5015685;28;1248;-13
2023/02/22 00:08:20;;;;;;;;;;;;;;;25.54;24.61;100474.81;5016710;28;1103;-13
2023/02/22 00:10:45;;;;;;;;;;;;;;;25.51;24.50;100465.22;5015369;28;1958;-13
2023/02/22 00:13:12;;;;;;;;;;;;;;;25.48;24.39;100465.59;5016131;28;1240;-14
2023/02/22 00:15:40;;;;;;;;;;;;;;;25.44;24.57;100473.19;5015928;28;1261;-13
2023/02/22 00:18:05;;;;;;;;;;;;;;;25.54;24.51;100472.94;5016002;28;1229;-13
2023/02/22 00:20:31;;;;;;;;;;;;;;;25.51;24.55;100464.38;5016239;28;1221;-13
2023/02/22 00:22:56;;;;;;;;;;;;;;;25.36;24.40;100472.41;5016206;28;1141;-14
2023/02/22 00:25:22;;;;;;;;;;;;;;;25.27;24.91;100469.78;5016487;28;1152;-14
2023/02/22 00:27:48;;;;;;;;;;;;;;;25.38;24.95;100465.81;5015298;28;1160;-13
2023/02/22 00:30:17;;;;;;;;;;;;;;;25.35;24.85;100462.66;5016215;28;1942;-14
2023/02/22 00:32:43;;;;;;;;;;;;;;;25.46;24.46;100464.09;5016794;28;1064;-13
2023/02/22 00:35:09;;;;;;;;;;;;;;;25.56;23.90;100460.16;5016104;28;1048;-13
2023/02/22 00:37:34;;;;;;;;;;;;;;;25.57;23.70;100463.69;4998276;28;1120;-14
2023/02/22 00:40:00;;;;;;;;;;;;;;;25.57;24.08;100471.75;5002550;28;1124;-13
2023/02/22 00:42:25;;;;;;;;;;;;;;;25.60;24.07;100471.41;5016083;28;1168;-13
2023/02/22 00:44:50;;;;;;;;;;;;;;;25.61;23.71;100474.94;5016164;28;1033;-13
2023/02/22 00:47:16;;;;;;;;;;;;;;;25.53;24.00;100473.13;5016229;28;1091;-13
2023/02/22 00:49:41;;;;;;;;;;;;;;;25.48;23.90;100473.66;4998449;28;1902;-13
2023/02/22 00:52:07;;;;;;;;;;;;;;;25.47;24.10;100471.16;5016122;28;927;-13
2023/02/22 00:54:33;;;;;;;;;;;;;;;25.47;24.07;100466.63;5015862;28;1164;-13
2023/02/22 00:56:58;;;;;;;;;;;;;;;25.45;24.00;100463.25;5015535;28;1132;-14
2023/02/22 00:59:23;;;;;;;;;;;;;;;25.47;24.03;100472.00;5015979;28;1176;-14
2023/02/22 01:01:49;;;;;;;;;;;;;;;25.36;24.17;100467.84;5016252;28;1060;-13
2023/02/22 01:04:14;;;;;;;;;;;;;;;25.37;24.14;100474.94;5015616;28;922;-13
2023/02/22 01:06:39;;;;;;;;;;;;;;;25.47;24.04;100473.84;5016053;28;1061;-14
2023/02/22 01:09:06;;;;;;;;;;;;;;;25.48;23.99;100478.22;5015562;28;1902;-13
2023/02/22 01:11:31;;;;;;;;;;;;;;;25.39;23.99;100475.56;5016196;28;1148;-14
2023/02/22 01:13:57;;;;;;;;;;;;;;;25.43;24.18;100474.22;5015782;28;1061;-13
2023/02/22 01:16:22;;;;;;;;;;;;;;;25.38;24.25;100470.34;5015763;28;867;-13
2023/02/22 01:18:47;;;;;;;;;;;;;;;25.40;24.21;100465.66;5015594;28;961;-13
2023/02/22 01:21:13;;;;;;;;;;;;;;;25.34;24.18;100466.38;5015962;28;1107;-13
2023/02/22 01:23:38;;;;;;;;;;;;;;;25.37;24.13;100466.00;5015886;28;1175;-13
2023/02/22 01:26:04;;;;;;;;;;;;;;;25.40;24.34;100466.50;5015744;28;1049;-14
2023/02/22 01:28:30;;;;;;;;;;;;;;;25.36;24.21;100470.53;5014481;28;1934;-12
2023/02/22 01:30:55;;;;;;;;;;;;;;;25.29;24.25;100474.97;5015663;28;1060;-13
2023/02/22 01:33:21;;;;;;;;;;;;;;;25.14;24.52;100472.19;5015987;28;1144;-13
2023/02/22 01:35:46;;;;;;;;;;;;;;;24.99;24.75;100469.41;5015485;28;1080;-13
2023/02/22 01:38:13;;;;;;;;;;;;;;;25.06;24.72;100464.97;5015240;28;1030;-13
2023/02/22 01:40:40;;;;;;;;;;;;;;;25.14;24.64;100459.56;5015327;28;876;-13
2023/02/22 01:43:25;;;;;;;;;;;;;;;25.26;24.76;100461.84;5015542;28;1164;-13
2023/02/22 01:45:59;;;;;;;;;;;;;;;25.34;24.38;100460.97;5015671;28;1117;-13
2023/02/22 01:48:41;;;;;;;;;;;;;;;25.38;24.61;100464.97;5015409;28;1114;-13
2023/02/22 01:51:16;;;;;;;;;;;;;;;25.38;24.71;100459.59;5015275;28;1095;-13
2023/02/22 01:53:41;;;;;;;;;;;;;;;25.34;24.71;100458.28;5000985;28;1130;-14
2023/02/22 01:56:07;;;;;;;;;;;;;;;25.28;24.97;100457.13;5018714;28;1072;-14
2023/02/22 01:58:32;;;;;;;;;;;;;;;25.39;24.87;100458.59;5018520;28;1045;-13
2023/02/22 02:00:58;;;;;;;;;;;;;;;25.42;24.63;100461.75;5018619;28;1072;-13
2023/02/22 02:03:26;;;;;;;;;;;;;;;25.27;24.80;100463.53;5014580;28;1197;-13
2023/02/22 02:05:51;;;;;;;;;;;;;;;25.35;24.80;100466.19;5014576;28;1073;-14
2023/02/22 02:08:28;;;;;;;;;;;;;;;25.35;24.66;100460.81;5001556;28;1088;-13
2023/02/22 02:10:54;;;;;;;;;;;;;;;25.49;24.50;100463.75;5000613;28;1969;-13
2023/02/22 02:13:19;;;;;;;;;;;;;;;25.52;24.67;100469.63;5018703;28;1140;-14
2023/02/22 02:15:44;;;;;;;;;;;;;;;25.42;24.86;100467.13;5017225;28;1223;-13
2023/02/22 02:18:10;;;;;;;;;;;;;;;25.41;24.96;100468.16;5018836;28;1076;-14
2023/02/22 02:20:38;;;;;;;;;;;;;;;25.47;24.85;100466.63;5018248;28;1141;-13
2023/02/22 02:23:06;;;;;;;;;;;;;;;25.50;24.79;100474.34;5018434;28;1120;-13
2023/02/22 02:25:31;;;;;;;;;;;;;;;25.49;24.84;100474.50;5018542;28;1145;-13
2023/02/22 02:28:12;;;;;;;;;;;;;;;25.42;24.88;100472.50;5018259;28;1228;-13
2023/02/22 02:30:40;;;;;;;;;;;;;;;25.59;24.77;100472.41;5018123;28;1906;-14
2023/02/22 02:33:17;;;;;;;;;;;;;;;25.49;24.86;100477.22;5018155;28;1187;-14
2023/02/22 02:35:57;;;;;;;;;;;;;;;25.59;24.69;100477.78;5018809;28;1144;-14
2023/02/22 02:38:32;;;;;;;;;;;;;;;25.71;24.76;100478.25;5018164;28;1058;-14
2023/02/22 02:41:00;;;;;;;;;;;;;;;25.64;24.88;100474.63;5017152;28;1134;-13
2023/02/22 02:43:25;;;;;;;;;;;;;;;25.59;24.89;100479.66;5018271;28;1135;-14
2023/02/22 02:45:53;;;;;;;;;;;;;;;25.63;24.66;100484.53;5018069;28;1192;-13
2023/02/22 02:48:20;;;;;;;;;;;;;;;25.66;24.82;100492.25;5017634;28;1108;-13
2023/02/22 02:50:46;;;;;;;;;;;;;;;25.75;24.67;100484.13;5000246;28;1890;-14
2023/02/22 02:53:12;;;;;;;;;;;;;;;25.59;24.78;100495.81;5000149;28;931;-13
2023/02/22 02:55:37;;;;;;;;;;;;;;;25.55;24.94;100488.09;5000208;28;1100;-13
2023/02/22 02:58:03;;;;;;;;;;;;;;;25.57;25.12;100498.69;5017974;28;1127;-14
2023/02/22 03:00:29;;;;;;;;;;;;;;;25.56;24.74;100495.16;5017564;28;1139;-14
2023/02/22 03:02:58;;;;;;;;;;;;;;;25.46;25.22;100491.03;5000692;28;1143;-13
2023/02/22 03:05:32;;;;;;;;;;;;;;;25.55;25.26;100488.09;5016918;28;1061;-14
2023/02/22 03:08:18;;;;;;;;;;;;;;;25.48;25.23;100492.53;5018470;28;1176;-14
2023/02/22 03:10:46;;;;;;;;;;;;;;;25.62;24.94;100490.06;5016106;28;1898;-13
2023/02/22 03:13:18;;;;;;;;;;;;;;;25.54;24.97;100491.81;5017594;28;1124;-14
2023/02/22 03:15:55;;;;;;;;;;;;;;;25.52;25.27;100490.31;5017374;28;1088;-13
2023/02/22 03:18:21;;;;;;;;;;;;;;;25.50;25.02;100489.66;4999930;28;1116;-13
2023/02/22 03:20:56;;;;;;;;;;;;;;;25.55;24.95;100498.03;5017096;28;1121;-13
2023/02/22 03:23:24;;;;;;;;;;;;;;;25.52;25.34;100499.25;5017052;28;1227;-13
2023/02/22 03:26:08;;;;;;;;;;;;;;;25.54;25.26;100507.13;5000032;28;1036;-13
2023/02/22 03:28:34;;;;;;;;;;;;;;;25.51;25.28;100511.00;4999071;28;1985;-13
2023/02/22 03:31:14;;;;;;;;;;;;;;;25.48;25.32;100511.38;4999717;28;1165;-13
2023/02/22 03:33:43;;;;;;;;;;;;;;;25.40;25.11;100508.72;4999486;28;997;-14
2023/02/22 03:36:29;;;;;;;;;;;;;;;25.50;25.23;100509.34;4999653;28;1076;-13
2023/02/22 03:38:54;;;;;;;;;;;;;;;25.54;25.39;100517.91;5016731;28;1170;-14
2023/02/22 03:41:22;;;;;;;;;;;;;;;25.52;25.28;100519.94;5017072;28;1299;-13
2023/02/22 03:43:49;;;;;;;;;;;;;;;25.47;25.54;100516.94;4999869;28;1184;-14
2023/02/22 03:46:14;;;;;;;;;;;;;;;25.55;25.14;100520.44;4999645;28;1081;-14
2023/02/22 03:48:48;;;;;;;;;;;;;;;25.54;25.33;100520.59;4999064;28;1906;-14
2023/02/22 03:51:13;;;;;;;;;;;;;;;25.58;25.11;100519.22;4999240;28;1188;-13
2023/02/22 03:53:39;;;;;;;;;;;;;;;25.49;25.44;100523.00;4998903;28;1054;-13
2023/02/22 03:56:06;;;;;;;;;;;;;;;25.50;25.52;100525.50;4999564;28;1212;-13
2023/02/22 03:58:31;;;;;;;;;;;;;;;25.48;25.33;100527.53;4999624;28;1137;-12
2023/02/22 04:00:56;;;;;;;;;;;;;;;25.49;25.36;100523.00;4999753;28;1191;-13
2023/02/22 04:03:22;;;;;;;;;;;;;;;25.31;25.28;100529.47;4998363;28;922;-13
2023/02/22 04:05:47;;;;;;;;;;;;;;;25.22;25.19;100514.38;5016322;28;1128;-14
2023/02/22 04:08:12;;;;;;;;;;;;;;;25.15;25.17;100516.94;5016785;28;1081;-14
2023/02/22 04:10:38;;;;;;;;;;;;;;;25.12;25.28;100510.06;5016225;28;1898;-13
2023/02/22 04:13:05;;;;;;;;;;;;;;;25.02;25.01;100498.66;5016167;28;1040;-13
2023/02/22 04:15:31;;;;;;;;;;;;;;;25.05;24.79;100501.00;4999023;28;1145;-13
2023/02/22 04:17:56;;;;;;;;;;;;;;;25.01;24.80;100500.50;5013279;28;833;-12
2023/02/22 04:20:24;;;;;;;;;;;;;;;24.98;24.86;100500.84;5010364;28;1222;-13
2023/02/22 04:22:50;;;;;;;;;;;;;;;24.95;24.79;100490.44;5009930;28;1041;-13
2023/02/22 04:25:15;;;;;;;;;;;;;;;24.93;24.91;100504.06;5015598;28;870;-13
2023/02/22 04:27:41;;;;;;;;;;;;;;;24.96;24.92;100505.56;5016475;28;1128;-13
2023/02/22 04:30:06;;;;;;;;;;;;;;;24.90;24.91;100500.84;5015768;28;1965;-13
2023/02/22 04:32:31;;;;;;;;;;;;;;;24.92;24.86;100507.75;5016013;28;1211;-14
2023/02/22 04:34:57;;;;;;;;;;;;;;;24.88;24.57;100508.25;5016213;28;1120;-13
2023/02/22 04:37:22;;;;;;;;;;;;;;;24.81;24.75;100505.41;5016403;28;1076;-13
2023/02/22 04:39:47;;;;;;;;;;;;;;;24.81;24.75;100508.09;5016419;28;1080;-13
2023/02/22 04:42:12;;;;;;;;;;;;;;;24.85;24.54;100506.75;5016184;28;885;-13
2023/02/22 04:44:38;;;;;;;;;;;;;;;24.82;24.71;100507.94;5015985;28;1310;-13
2023/02/22 04:47:03;;;;;;;;;;;;;;;24.32;22.74;100516.13;5016251;28;1184;-13
2023/02/22 04:49:28;;;;;;;;;;;;;;;23.26;24.40;100519.28;4998539;28;1978;-13
2023/02/22 04:51:54;;;;;;;;;;;;;;;22.35;24.65;100517.81;5016380;28;1290;-13
2023/02/22 04:54:19;;;;;;;;;;;;;;;22.06;24.28;100516.22;4997238;28;1075;-13
2023/02/22 04:56:44;;;;;;;;;;;;;;;21.53;24.27;100516.88;4996921;28;1057;-13
2023/02/22 04:59:09;;;;;;;;;;;;;;;22.41;23.53;100516.31;5001895;28;1128;-13
2023/02/22 05:01:35;;;;;;;;;;;;;;;23.02;22.58;100525.41;5004388;28;1145;-13
2023/02/22 05:04:01;;;;;;;;;;;;;;;23.23;22.39;100530.34;5014503;28;1141;-13
2023/02/22 05:06:26;;;;;;;;;;;;;;;23.65;22.63;100535.88;5004141;28;949;-13
2023/02/22 05:08:52;;;;;;;;;;;;;;;23.92;22.82;100529.34;5007545;28;1975;-14
2023/02/22 05:11:17;;;;;;;;;;;;;;;24.06;23.18;100527.88;5011883;28;1072;-14
2023/02/22 05:13:42;;;;;;;;;;;;;;;24.21;23.39;100533.44;4996451;28;1041;-14
2023/02/22 05:16:07;;;;;;;;;;;;;;;24.30;23.44;100546.88;5009380;28;1166;-14
2023/02/22 05:18:33;;;;;;;;;;;;;;;24.32;23.44;100543.00;5007083;28;942;-13
2023/02/22 05:20:58;;;;;;;;;;;;;;;24.41;23.33;100551.91;5003236;28;1207;-14
2023/02/22 05:23:23;;;;;;;;;;;;;;;24.37;23.68;100549.72;5015969;28;1167;-13
2023/02/22 05:25:49;;;;;;;;;;;;;;;24.49;23.57;100555.59;5015303;28;1002;-14
2023/02/22 05:28:14;;;;;;;;;;;;;;;24.41;23.77;100551.91;5010222;28;1054;-13
2023/02/22 05:30:39;;;;;;;;;;;;;;;24.50;23.88;100562.66;5019161;28;1914;-13
2023/02/22 05:33:05;;;;;;;;;;;;;;;24.43;24.02;100563.34;5006344;28;1064;-13
2023/02/22 05:35:30;;;;;;;;;;;;;;;24.56;23.93;100573.56;5019339;28;1041;-13
2023/02/22 05:37:56;;;;;;;;;;;;;;;24.45;24.37;100577.47;5006453;28;1024;-15
2023/02/22 05:40:22;;;;;;;;;;;;;;;24.88;24.30;100584.44;5009483;28;1144;-16
2023/02/22 05:42:48;;;;;;;;;;;;;;;24.75;24.08;100584.97;5016140;28;850;-14
2023/02/22 05:45:13;;;;;;;;;;;;;;;24.66;24.14;100584.13;5019154;28;1040;-14
2023/02/22 05:47:38;;;;;;;;;;;;;;;24.67;24.36;100587.69;5002090;28;1093;-13
2023/02/22 05:50:04;;;;;;;;;;;;;;;24.37;23.16;100593.59;4999460;28;1894;-14
2023/02/22 05:52:29;;;;;;;;;;;;;;;24.09;23.19;100589.34;5004745;28;1117;-15
2023/02/22 05:54:54;;;;;;;;;;;;;;;23.85;22.93;100599.06;4986735;28;1207;-15
2023/02/22 05:57:20;;;;;;;;;;;;;;;23.68;22.99;100600.00;5010183;28;1291;-15
2023/02/22 05:59:45;;;;;;;;;;;;;;;23.80;22.72;100603.22;4999691;28;1054;-15
2023/02/22 06:02:10;;;;;;;;;;;;;;;24.02;22.23;100608.97;5000168;28;1029;-15
2023/02/22 06:04:36;;;;;;;;;;;;;;;23.88;22.93;100611.28;5019008;28;1236;-15
2023/02/22 06:07:01;;;;;;;;;;;;;;;23.90;22.90;100611.13;4998703;28;975;-15
2023/02/22 06:09:26;;;;;;;;;;;;;;;24.05;22.58;100612.19;5011916;28;1894;-15
2023/02/22 06:11:51;;;;;;;;;;;;;;;24.11;22.57;100613.34;5007242;28;1117;-14
2023/02/22 06:14:17;;;;;;;;;;;;;;;24.11;22.74;100618.72;5012476;28;1213;-15
2023/02/22 06:16:42;;;;;;;;;;;;;;;24.00;22.89;100614.53;4999195;28;1089;-15
2023/02/22 06:19:07;;;;;;;;;;;;;;;23.89;22.94;100623.72;5006781;28;1149;-15
2023/02/22 06:21:32;;;;;;;;;;;;;;;24.17;23.06;100620.78;5012063;28;1445;-15
2023/02/22 06:23:58;;;;;;;;;;;;;;;24.27;22.55;100627.84;5011780;28;1169;-15
2023/02/22 06:26:23;;;;;;;;;;;;;;;24.24;22.90;100618.25;5014634;28;1098;-15
2023/02/22 06:28:48;;;;;;;;;;;;;;;24.55;22.79;100624.84;5009681;28;1965;-15
2023/02/22 06:31:14;;;;;;;;;;;;;;;24.77;23.66;100623.31;5011652;28;988;-14
2023/02/22 06:33:39;;;;;;;;;;;;;;;25.27;23.80;100631.31;5007225;28;1212;-14
2023/02/22 06:36:04;;;;;;;;;;;;;;;25.35;23.23;100616.97;5003499;28;1142;-15
2023/02/22 06:38:30;;;;;;;;;;;;;;;25.33;23.99;100624.38;4997817;28;1672;-14
2023/02/22 06:40:55;;;;;;;;;;;;;;;25.42;23.91;100627.88;5013622;28;1180;-14
2023/02/22 06:43:21;;;;;;;;;;;;;;;25.55;23.79;100628.16;5017348;28;914;-15
2023/02/22 06:45:46;;;;;;;;;;;;;;;25.51;23.83;100624.13;5004966;28;1184;-15
2023/02/22 06:48:12;;;;;;;;;;;;;;;25.59;23.78;100630.50;5017744;28;1131;-14
2023/02/22 06:50:37;;;;;;;;;;;;;;;25.40;23.79;100621.81;5017635;28;1902;-14
2023/02/22 06:53:02;;;;;;;;;;;;;;;25.59;24.24;100625.94;5013504;28;1116;-15
2023/02/22 06:55:28;;;;;;;;;;;;;;;25.88;23.67;100626.31;4998596;28;871;-14
2023/02/22 06:57:54;;;;;;;;;;;;;;;25.92;23.43;100627.66;4998725;28;1153;-14
2023/02/22 07:00:20;;;;;;;;;;;;;;;25.96;24.34;100633.53;5009395;28;1145;-14
2023/02/22 07:02:47;;;;;;;;;;;;;;;26.02;24.00;100625.59;5000169;28;1192;-14
2023/02/22 07:05:12;;;;;;;;;;;;;;;26.00;24.11;100626.75;5009741;28;1168;-14
2023/02/22 07:07:38;;;;;;;;;;;;;;;25.88;23.21;100624.47;5004185;28;870;-14
2023/02/22 07:10:04;;;;;;;;;;;;;;;25.94;23.07;100628.34;5005976;28;1965;-14
2023/02/22 07:12:29;;;;;;;;;;;;;;;25.93;23.39;100623.94;5011788;28;1064;-15
2023/02/22 07:14:55;;;;;;;;;;;;;;;26.10;23.25;100615.75;5009019;28;1036;-14
2023/02/22 07:17:20;;;;;;;;;;;;;;;26.09;23.17;100614.06;5013126;28;1120;-14
2023/02/22 07:19:45;;;;;;;;;;;;;;;26.09;23.32;100617.59;4998050;28;893;-14
2023/02/22 07:22:11;;;;;;;;;;;;;;;26.09;23.03;100622.16;4998245;28;1108;-14
2023/02/22 07:24:36;;;;;;;;;;;;;;;26.27;23.07;100619.16;4997020;28;1057;-14
2023/02/22 07:27:01;;;;;;;;;;;;;;;26.34;22.98;100617.44;5002198;28;1156;-14
2023/02/22 07:29:27;;;;;;;;;;;;;;;26.35;22.56;100624.53;5003047;28;1963;-15
2023/02/22 07:31:52;;;;;;;;;;;;;;;26.27;23.12;100622.72;4998501;28;905;-15
2023/02/22 07:34:17;;;;;;;;;;;;;;;26.34;22.98;100628.22;4997876;28;1112;-15
2023/02/22 07:36:42;;;;;;;;;;;;;;;26.35;23.01;100623.69;5007709;28;1102;-15
2023/02/22 07:39:08;;;;;;;;;;;;;;;26.28;23.16;100618.13;5015720;28;1188;-15
2023/02/22 07:41:33;;;;;;;;;;;;;;;26.30;23.21;100616.09;4997545;28;1205;-15
2023/02/22 07:43:58;;;;;;;;;;;;;;;26.38;22.95;100613.38;4997398;28;1004;-14
2023/02/22 07:46:24;;;;;;;;;;;;;;;26.42;22.88;100619.25;4997796;28;1140;-14
2023/02/22 07:48:49;;;;;;;;;;;;;;;26.51;23.44;100610.06;4998195;28;1906;-14
2023/02/22 07:51:15;;;;;;;;;;;;;;;26.75;22.83;100618.09;5008903;28;1370;-14
2023/02/22 07:53:40;;;;;;;;;;;;;;;26.78;23.03;100620.44;4998304;28;1121;-15
2023/02/22 07:56:07;;;;;;;;;;;;;;;26.70;22.88;100624.06;5016727;28;1005;-15
2023/02/22 07:58:34;;;;;;;;;;;;;;;26.70;22.59;100623.22;5007564;28;1040;-14
2023/02/22 08:01:00;;;;;;;;;;;;;;;26.55;22.67;100612.38;5007362;28;1225;-14
2023/02/22 08:03:26;;;;;;;;;;;;;;;26.60;22.65;100621.63;5015740;28;1240;-15
2023/02/22 08:05:52;;;;;;;;;;;;;;;26.46;22.99;100615.16;5016097;28;1483;-15
2023/02/22 08:08:17;;;;;;;;;;;;;;;26.39;23.03;100619.63;4998661;28;1370;-14
2023/02/22 08:10:43;;;;;;;;;;;;;;;26.52;22.73;100619.84;5015905;28;1910;-15
2023/02/22 08:13:08;;;;;;;;;;;;;;;26.56;22.69;100627.56;5013022;28;1333;-15
2023/02/22 08:15:35;;;;;;;;;;;;;;;26.62;22.75;100606.09;5007016;28;1267;-15
2023/02/22 08:18:00;;;;;;;;;;;;;;;26.56;22.79;100617.59;5010011;28;1042;-14
2023/02/22 08:20:26;;;;;;;;;;;;;;;26.63;22.83;100615.00;5014666;28;1478;-15
2023/02/22 08:22:51;;;;;;;;;;;;;;;26.75;22.64;100610.00;5014772;28;1225;-15
2023/02/22 08:25:17;;;;;;;;;;;;;;;26.67;22.85;100610.94;5012689;28;1143;-15
2023/02/22 08:27:42;;;;;;;;;;;;;;;26.87;22.70;100611.25;5013462;28;1306;-14
2023/02/22 08:30:09;;;;;;;;;;;;;;;26.91;22.76;100606.28;4996360;28;1961;-14
2023/02/22 08:32:34;;;;;;;;;;;;;;;26.94;23.06;100600.53;4994928;28;1241;-14
2023/02/22 08:35:01;;;;;;;;;;;;;;;27.00;22.24;100604.34;5015949;28;1308;-15
2023/02/22 08:37:26;;;;;;;;;;;;;;;27.10;22.32;100607.66;5016028;28;1205;-15
2023/02/22 08:39:52;;;;;;;;;;;;;;;27.23;22.39;100606.13;5016257;28;1248;-15
2023/02/22 08:42:17;;;;;;;;;;;;;;;27.08;22.49;100601.59;5013494;28;1225;-15
2023/02/22 08:44:42;;;;;;;;;;;;;;;27.21;22.68;100608.22;5016045;28;1461;-15
2023/02/22 08:47:08;;;;;;;;;;;;;;;27.22;22.65;100609.88;5016584;28;1129;-15
2023/02/22 08:49:33;;;;;;;;;;;;;;;27.27;22.67;100610.16;5016317;28;1953;-14
2023/02/22 08:51:58;;;;;;;;;;;;;;;27.39;22.28;100613.22;5005520;28;1132;-14
2023/02/22 08:54:24;;;;;;;;;;;;;;;27.53;22.42;100607.97;5009949;28;1467;-14
2023/02/22 08:56:49;;;;;;;;;;;;;;;27.42;22.37;100609.28;4996422;28;1459;-14
2023/02/22 08:59:15;;;;;;;;;;;;;;;27.32;22.33;100615.84;5016111;28;1152;-14
2023/02/22 09:01:40;;;;;;;;;;;;;;;27.32;22.62;100620.38;5006640;28;1152;-14
2023/02/22 09:04:05;;;;;;;;;;;;;;;27.45;22.33;100617.88;5000372;28;1025;-14
2023/02/22 09:06:31;;;;;;;;;;;;;;;27.45;22.40;100614.31;5000782;28;1085;-13
2023/02/22 09:08:56;;;;;;;;;;;;;;;27.48;22.12;100616.63;5017502;28;1963;-14
2023/02/22 09:11:21;;;;;;;;;;;;;;;27.36;22.20;100617.13;5009466;28;1189;-14
2023/02/22 09:13:47;;;;;;;;;;;;;;;27.29;22.44;100628.88;4999969;28;1120;-14
2023/02/22 09:16:12;;;;;;;;;;;;;;;27.19;22.83;100624.59;5010996;28;1224;-14
2023/02/22 09:18:37;;;;;;;;;;;;;;;27.37;22.58;100626.91;5019370;28;1068;-14
2023/02/22 09:21:03;;;;;;;;;;;;;;;27.35;22.77;100630.81;5019754;28;1107;-14
2023/02/22 09:23:28;;;;;;;;;;;;;;;27.38;22.58;100627.72;5006577;28;1153;-14
2023/02/22 09:25:54;;;;;;;;;;;;;;;27.13;22.75;100626.16;5002038;28;1034;-13
2023/02/22 09:28:19;;;;;;;;;;;;;;;27.08;22.51;100630.44;5018791;28;1197;-15
2023/02/22 09:30:44;;;;;;;;;;;;;;;27.28;22.55;100633.41;5008909;28;1967;-14
2023/02/22 09:33:13;;;;;;;;;;;;;;;27.25;22.74;100631.94;5003727;28;1069;-14
2023/02/22 09:35:44;;;;;;;;;;;;;;;27.26;22.99;100633.63;5019569;28;1089;-14
2023/02/22 09:38:10;;;;;;;;;;;;;;;27.33;22.45;100628.31;5014726;28;1002;-15
2023/02/22 09:40:43;;;;;;;;;;;;;;;27.24;23.18;100632.13;5012450;28;1238;-14
2023/02/22 09:43:08;;;;;;;;;;;;;;;26.99;23.28;100635.91;5018363;28;1161;-15
2023/02/22 09:45:53;;;;;;;;;;;;;;;27.10;23.17;100631.94;5006091;28;862;-14
2023/02/22 09:48:18;;;;;;;;;;;;;;;27.15;23.49;100631.38;5000033;28;1058;-14
2023/02/22 09:50:44;;;;;;;;;;;;;;;27.20;23.10;100628.13;5002598;28;1898;-13
2023/02/22 09:53:28;;;;;;;;;;;;;;;27.30;23.19;100628.69;5017694;28;1221;-14
2023/02/22 09:55:56;;;;;;;;;;;;;;;27.25;22.82;100623.00;4990597;28;1260;-14
2023/02/22 09:58:23;;;;;;;;;;;;;;;27.18;23.07;100625.59;5010098;28;1220;-14
2023/02/22 10:00:50;;;;;;;;;;;;;;;27.27;23.22;100626.34;4996775;28;1311;-13
2023/02/22 10:03:24;;;;;;;;;;;;;;;27.43;22.65;100619.06;5000025;28;1172;-14
2023/02/22 10:05:55;;;;;;;;;;;;;;;27.57;22.49;100617.38;5010606;28;1068;-14
2023/02/22 10:08:21;;;;;;;;;;;;;;;27.47;22.53;100620.38;5000183;28;867;-14
2023/02/22 10:10:51;;;;;;;;;;;;;;;27.53;22.67;100621.50;4998195;28;1902;-14
2023/02/22 10:13:51;;;;;;;;;;;;;;;27.67;22.52;100611.66;5005605;28;1106;-15
2023/02/22 10:16:22;;;;;;;;;;;;;;;27.51;22.26;100621.66;4957976;29;1439;-14
2023/02/22 10:19:06;;;;;;;;;;;;;;;27.40;22.41;100604.06;4994873;28;1038;-14
2023/02/22 10:21:38;;;;;;;;;;;;;;;27.43;22.43;100608.25;5009551;28;1089;-14
2023/02/22 10:24:23;;;;;;;;;;;;;;;27.59;22.03;100602.63;5018235;28;1252;-14
2023/02/22 10:26:49;;;;;;;;;;;;;;;27.61;22.29;100605.19;5016684;28;1217;-14
2023/02/22 10:29:21;;;;;;;;;;;;;;;27.63;21.86;100600.41;5000922;28;1977;-15
2023/02/22 10:31:47;;;;;;;;;;;;;;;27.82;22.04;100599.00;5017327;28;1294;-14
2023/02/22 10:34:19;;;;;;;;;;;;;;;27.76;21.54;100597.03;5005429;28;1129;-14
2023/02/22 10:36:45;;;;;;;;;;;;;;;27.69;22.13;100594.28;4987969;28;998;-14
2023/02/22 10:39:19;;;;;;;;;;;;;;;27.57;22.28;100593.91;5018457;28;1146;-14
2023/02/22 10:41:47;;;;;;;;;;;;;;;27.65;21.90;100586.69;5011205;28;1021;-14
2023/02/22 10:44:13;;;;;;;;;;;;;;;27.66;22.02;100591.09;5013276;28;1064;-14
2023/02/22 10:46:39;;;;;;;;;;;;;;;27.71;21.76;100584.09;5017694;28;1065;-14
2023/02/22 10:49:06;;;;;;;;;;;;;;;27.85;21.74;100578.84;5008515;28;1961;-14
2023/02/22 10:51:31;;;;;;;;;;;;;;;27.88;21.74;100575.75;4999458;28;1462;-15
2023/02/22 10:53:58;;;;;;;;;;;;;;;27.91;21.55;100578.06;5005337;28;852;-14
2023/02/22 10:56:23;;;;;;;;;;;;;;;27.98;21.83;100586.22;5007153;28;1145;-14
2023/02/22 10:58:48;;;;;;;;;;;;;;;26.93;20.60;100579.09;5017571;28;1152;-15
2023/02/22 11:01:20;;;;;;;;;;;;;;;25.72;20.82;100579.63;5015441;28;954;-14
2023/02/22 11:03:46;;;;;;;;;;;;;;;24.66;22.18;100577.91;5012450;28;1124;-14
2023/02/22 11:06:18;;;;;;;;;;;;;;;25.17;21.83;100574.94;4997085;28;1160;-15
2023/02/22 11:08:45;;;;;;;;;;;;;;;25.47;21.55;100568.09;5000658;28;987;-15
2023/02/22 11:11:22;;;;;;;;;;;;;;;24.66;23.34;100569.84;4998959;28;1903;-15
2023/02/22 11:13:53;;;;;;;;;;;;;;;24.16;23.13;100569.84;4991159;28;1218;-15
2023/02/22 11:16:20;;;;;;;;;;;;;;;24.40;22.22;100570.91;5004531;28;1165;-14
2023/02/22 11:18:48;;;;;;;;;;;;;;;24.67;22.32;100572.38;5014304;28;1212;-15
2023/02/22 11:21:17;;;;;;;;;;;;;;;25.45;21.28;100568.28;5008053;28;926;-15
2023/02/22 11:23:42;;;;;;;;;;;;;;;25.40;21.32;100568.81;4984239;28;1358;-14
2023/02/22 11:26:08;;;;;;;;;;;;;;;25.46;21.15;100569.13;4996600;28;1052;-14
2023/02/22 11:28:34;;;;;;;;;;;;;;;25.05;23.42;100579.03;4989749;28;1069;-14
2023/02/22 11:31:16;;;;;;;;;;;;;;;24.97;23.72;100579.91;5017400;28;1905;-15
2023/02/22 11:33:51;;;;;;;;;;;;;;;25.01;24.39;100573.16;4999604;28;902;-14
2023/02/22 11:36:27;;;;;;;;;;;;;;;24.60;23.64;100573.22;5000086;28;1112;-14
2023/02/22 11:38:54;;;;;;;;;;;;;;;24.67;23.03;100569.66;5006317;28;1189;-14
2023/02/22 11:41:23;;;;;;;;;;;;;;;25.12;22.91;100560.34;5008987;28;1243;-15
2023/02/22 11:43:49;;;;;;;;;;;;;;;26.29;21.70;100577.50;4998301;28;1010;-15
2023/02/22 11:46:16;;;;;;;;;;;;;;;27.07;21.37;100581.03;5012316;28;1208;-15
2023/02/22 11:48:44;;;;;;;;;;;;;;;27.38;21.45;100573.72;5007246;28;1205;-14
2023/02/22 11:51:19;;;;;;;;;;;;;;;27.47;21.08;100580.69;5008012;28;1961;-15
2023/02/22 11:53:47;;;;;;;;;;;;;;;27.45;21.53;100571.94;4999827;28;1231;-15
2023/02/22 11:56:38;;;;;;;;;;;;;;;27.59;21.52;100580.19;5004662;28;1188;-15
2023/02/22 11:59:06;;;;;;;;;;;;;;;27.57;21.44;100582.25;5000401;28;1197;-15
2023/02/22 12:01:35;;;;;;;;;;;;;;;27.58;21.45;100590.16;5014865;28;1252;-15
2023/02/22 12:04:15;;;;;;;;;;;;;;;27.62;21.60;100593.31;5009374;28;1169;-15
2023/02/22 12:06:44;;;;;;;;;;;;;;;27.70;21.54;100584.28;5009523;28;1244;-15
2023/02/22 12:09:22;;;;;;;;;;;;;;;27.74;21.58;100580.19;5005368;28;1895;-15
2023/02/22 12:12:01;;;;;;;;;;;;;;;27.86;21.71;100594.03;5005106;28;1153;-15
2023/02/22 12:14:33;;;;;;;;;;;;;;;28.06;21.51;100591.50;5011855;28;1118;-15
2023/02/22 12:17:07;;;;;;;;;;;;;;;27.97;21.47;100593.53;5005389;28;1305;-15
2023/02/22 12:19:35;;;;;;;;;;;;;;;27.90;21.73;100584.50;5004569;28;1169;-15
2023/02/22 12:22:08;;;;;;;;;;;;;;;27.78;21.85;100586.06;4994801;28;1034;-15
2023/02/22 12:24:41;;;;;;;;;;;;;;;27.71;22.01;100594.91;5005566;28;1228;-15
2023/02/22 12:27:08;;;;;;;;;;;;;;;27.70;21.70;100593.25;5009682;28;1288;-15
2023/02/22 12:29:56;;;;;;;;;;;;;;;27.65;21.99;100601.03;4995700;28;1898;-15
2023/02/22 12:32:24;;;;;;;;;;;;;;;27.46;21.86;100606.00;4988713;28;1188;-15
2023/02/22 12:35:11;;;;;;;;;;;;;;;27.30;22.33;100608.94;5005926;28;1291;-14
2023/02/22 12:37:39;;;;;;;;;;;;;;;27.29;22.14;100604.56;4985182;28;1249;-15
2023/02/22 12:40:07;;;;;;;;;;;;;;;27.36;22.49;100602.78;5005335;28;1247;-15
2023/02/22 12:42:37;;;;;;;;;;;;;;;27.25;22.23;100610.34;5007412;28;1342;-15
2023/02/22 12:45:05;;;;;;;;;;;;;;;27.24;22.22;100610.53;4992360;28;1387;-15
2023/02/22 12:47:36;;;;;;;;;;;;;;;27.06;22.66;100609.03;5007141;28;1272;-16
2023/02/22 12:50:18;;;;;;;;;;;;;;;26.93;22.77;100617.75;4975149;28;1903;-15